CES2375 ZLXY-ZLGM
Flight info
| Callsign | CES2375 |
|---|---|
| Flight time | 2h 4m |
| Altitude | 38100 |
| Route | TEBIB W541 OVKAB W94 XFG W213 APESU W197 BUKPU W198 PANRA H60 XNN H15 GRM |
| Aircraft | A319/M-SDE3FGHIRWY/LB1 |
Departure
| Time | 2026-04-27 16:02 |
|---|---|
| Airport | Xi'an Xianyang International Airport (ZLXY) |
Arrival
| Time | 2026-04-27 18:07 |
|---|---|
| Airport | Golmud Airport (ZLGM) |
| Time | Latitude | Longitude | Altitude | Speed | Heading |
|---|---|---|---|---|---|
| 2026-04-27 15:35 | 34.44631 | 108.75742 | 1521 ft | 0 kts | 319° |
| 2026-04-27 15:52 | 34.44632 | 108.75741 | 1521 ft | 1 kts | 319° |
| 2026-04-27 15:53 | 34.44639 | 108.75734 | 1519 ft | 3 kts | 319° |
| 2026-04-27 15:53 | 34.44660 | 108.75711 | 1521 ft | 6 kts | 319° |
| 2026-04-27 15:53 | 34.44709 | 108.75712 | 1521 ft | 9 kts | 33° |
| 2026-04-27 15:53 | 34.44754 | 108.75772 | 1521 ft | 11 kts | 49° |
| 2026-04-27 15:54 | 34.44808 | 108.75845 | 1517 ft | 10 kts | 44° |
| 2026-04-27 15:54 | 34.44876 | 108.75841 | 1521 ft | 11 kts | 330° |
| 2026-04-27 15:54 | 34.44944 | 108.75780 | 1520 ft | 13 kts | 322° |
| 2026-04-27 15:54 | 34.45017 | 108.75702 | 1520 ft | 15 kts | 317° |
| 2026-04-27 15:55 | 34.45097 | 108.75613 | 1521 ft | 17 kts | 318° |
| 2026-04-27 15:55 | 34.45188 | 108.75516 | 1519 ft | 18 kts | 318° |
| 2026-04-27 15:55 | 34.45273 | 108.75423 | 1521 ft | 11 kts | 312° |
| 2026-04-27 15:55 | 34.45272 | 108.75338 | 1520 ft | 11 kts | 233° |
| 2026-04-27 15:56 | 34.45216 | 108.75260 | 1518 ft | 13 kts | 229° |
| 2026-04-27 15:56 | 34.45152 | 108.75170 | 1521 ft | 15 kts | 229° |
| 2026-04-27 15:56 | 34.45079 | 108.75069 | 1521 ft | 17 kts | 229° |
| 2026-04-27 15:56 | 34.44999 | 108.74958 | 1521 ft | 18 kts | 229° |
| 2026-04-27 15:57 | 34.44912 | 108.74837 | 1521 ft | 20 kts | 228° |
| 2026-04-27 15:57 | 34.44818 | 108.74709 | 1521 ft | 21 kts | 229° |
| 2026-04-27 15:57 | 34.44718 | 108.74570 | 1522 ft | 23 kts | 229° |
| 2026-04-27 15:57 | 34.44609 | 108.74421 | 1521 ft | 24 kts | 228° |
| 2026-04-27 15:58 | 34.44494 | 108.74262 | 1521 ft | 26 kts | 229° |
| 2026-04-27 15:58 | 34.44372 | 108.74091 | 1517 ft | 28 kts | 229° |
| 2026-04-27 15:58 | 34.44244 | 108.73914 | 1521 ft | 28 kts | 228° |
| 2026-04-27 15:58 | 34.44137 | 108.73770 | 1522 ft | 12 kts | 228° |
| 2026-04-27 15:59 | 34.44120 | 108.73690 | 1522 ft | 11 kts | 284° |
| 2026-04-27 15:59 | 34.44170 | 108.73623 | 1522 ft | 11 kts | 319° |
| 2026-04-27 15:59 | 34.44231 | 108.73591 | 1522 ft | 10 kts | 25° |
| 2026-04-27 15:59 | 34.44249 | 108.73611 | 1522 ft | 0 kts | 49° |
| 2026-04-27 16:01 | 34.44252 | 108.73615 | 1522 ft | 4 kts | 49° |
| 2026-04-27 16:01 | 34.44365 | 108.73770 | 1521 ft | 52 kts | 49° |
| 2026-04-27 16:02 | 34.44730 | 108.74274 | 1521 ft | 106 kts | 49° |
| 2026-04-27 16:02 | 34.45336 | 108.75109 | 1521 ft | 156 kts | 49° |
| 2026-04-27 16:02 | 34.46110 | 108.76175 | 1922 ft | 171 kts | 48° |
| 2026-04-27 16:02 | 34.46907 | 108.77248 | 2659 ft | 172 kts | 42° |
| 2026-04-27 16:03 | 34.47990 | 108.77962 | 3070 ft | 190 kts | 20° |
| 2026-04-27 16:03 | 34.49322 | 108.78503 | 3449 ft | 214 kts | 16° |
| 2026-04-27 16:03 | 34.50828 | 108.79057 | 3909 ft | 239 kts | 16° |
| 2026-04-27 16:03 | 34.52497 | 108.79678 | 4541 ft | 261 kts | 17° |
| 2026-04-27 16:04 | 34.54258 | 108.80355 | 5462 ft | 268 kts | 18° |
| 2026-04-27 16:04 | 34.56026 | 108.81058 | 6443 ft | 273 kts | 19° |
| 2026-04-27 16:04 | 34.57841 | 108.81800 | 7435 ft | 277 kts | 20° |
| 2026-04-27 16:04 | 34.59673 | 108.82560 | 8447 ft | 280 kts | 21° |
| 2026-04-27 16:05 | 34.61561 | 108.83192 | 9391 ft | 285 kts | 9° |
| 2026-04-27 16:05 | 34.63562 | 108.83079 | 10285 ft | 294 kts | 349° |
| 2026-04-27 16:05 | 34.65520 | 108.82106 | 10722 ft | 320 kts | 329° |
| 2026-04-27 16:05 | 34.67276 | 108.80291 | 11042 ft | 343 kts | 319° |
| 2026-04-27 16:06 | 34.69058 | 108.78285 | 11707 ft | 351 kts | 319° |
| 2026-04-27 16:06 | 34.70861 | 108.76257 | 12486 ft | 355 kts | 319° |
| 2026-04-27 16:06 | 34.72683 | 108.74214 | 13241 ft | 358 kts | 320° |
| 2026-04-27 16:06 | 34.74525 | 108.72162 | 14015 ft | 361 kts | 320° |
| 2026-04-27 16:07 | 34.76331 | 108.70022 | 14730 ft | 365 kts | 314° |
| 2026-04-27 16:07 | 34.78033 | 108.67726 | 15474 ft | 366 kts | 313° |
| 2026-04-27 16:07 | 34.79737 | 108.65429 | 16224 ft | 367 kts | 312° |
| 2026-04-27 16:07 | 34.81454 | 108.63118 | 16950 ft | 368 kts | 312° |
| 2026-04-27 16:08 | 34.83174 | 108.60804 | 17697 ft | 369 kts | 311° |
| 2026-04-27 16:08 | 34.84898 | 108.58484 | 18445 ft | 370 kts | 311° |
| 2026-04-27 16:08 | 34.86629 | 108.56152 | 19061 ft | 372 kts | 310° |
| 2026-04-27 16:08 | 34.88371 | 108.53800 | 19648 ft | 375 kts | 310° |
| 2026-04-27 16:09 | 34.90124 | 108.51431 | 20221 ft | 378 kts | 310° |
| 2026-04-27 16:09 | 34.93677 | 108.46633 | 21363 ft | 384 kts | 309° |
| 2026-04-27 16:09 | 34.95468 | 108.44203 | 21931 ft | 387 kts | 309° |
| 2026-04-27 16:10 | 34.99061 | 108.39315 | 23004 ft | 392 kts | 308° |
| 2026-04-27 16:10 | 35.02727 | 108.34321 | 23986 ft | 397 kts | 308° |
| 2026-04-27 16:11 | 35.04579 | 108.31803 | 24441 ft | 399 kts | 308° |
| 2026-04-27 16:11 | 35.08299 | 108.26749 | 25336 ft | 401 kts | 308° |
| 2026-04-27 16:12 | 35.12045 | 108.21659 | 26220 ft | 404 kts | 308° |
| 2026-04-27 16:12 | 35.13924 | 108.19099 | 26667 ft | 405 kts | 308° |
| 2026-04-27 16:12 | 35.17695 | 108.13945 | 27534 ft | 408 kts | 307° |
| 2026-04-27 16:13 | 35.19592 | 108.11346 | 27940 ft | 410 kts | 307° |
| 2026-04-27 16:13 | 35.23408 | 108.06126 | 28755 ft | 413 kts | 307° |
| 2026-04-27 16:13 | 35.25325 | 108.03499 | 29152 ft | 415 kts | 307° |
| 2026-04-27 16:14 | 35.29178 | 107.98203 | 29918 ft | 418 kts | 307° |
| 2026-04-27 16:14 | 35.33051 | 107.92865 | 30597 ft | 421 kts | 307° |
| 2026-04-27 16:15 | 35.36958 | 107.87496 | 31255 ft | 422 kts | 307° |
| 2026-04-27 16:15 | 35.40847 | 107.82167 | 32173 ft | 417 kts | 307° |
| 2026-04-27 16:16 | 35.44689 | 107.76907 | 33144 ft | 411 kts | 306° |
| 2026-04-27 16:16 | 35.48628 | 107.71875 | 34147 ft | 412 kts | 315° |
| 2026-04-27 16:17 | 35.53755 | 107.68523 | 35014 ft | 429 kts | 335° |
| 2026-04-27 16:17 | 35.59635 | 107.66935 | 35796 ft | 432 kts | 339° |
| 2026-04-27 16:18 | 35.65501 | 107.65416 | 36540 ft | 429 kts | 338° |
| 2026-04-27 16:18 | 35.71266 | 107.63854 | 37256 ft | 421 kts | 333° |
| 2026-04-27 16:19 | 35.73919 | 107.62515 | 37588 ft | 405 kts | 321° |
| 2026-04-27 16:19 | 35.76198 | 107.60591 | 37921 ft | 391 kts | 311° |
| 2026-04-27 16:20 | 35.80448 | 107.52604 | 38227 ft | 366 kts | 283° |
| 2026-04-27 16:20 | 35.81130 | 107.49591 | 38222 ft | 366 kts | 282° |
| 2026-04-27 16:21 | 35.83207 | 107.40542 | 38225 ft | 366 kts | 283° |
| 2026-04-27 16:22 | 35.85968 | 107.28481 | 38219 ft | 365 kts | 282° |
| 2026-04-27 16:22 | 35.88000 | 107.19423 | 38226 ft | 366 kts | 282° |
| 2026-04-27 16:23 | 35.90018 | 107.10342 | 38225 ft | 366 kts | 282° |
| 2026-04-27 16:24 | 35.91275 | 107.04267 | 38241 ft | 366 kts | 281° |
| 2026-04-27 16:25 | 35.93671 | 106.92067 | 38233 ft | 366 kts | 281° |
| 2026-04-27 16:26 | 35.96081 | 106.79898 | 38247 ft | 366 kts | 281° |
| 2026-04-27 16:27 | 35.98499 | 106.67691 | 38233 ft | 366 kts | 281° |
| 2026-04-27 16:28 | 36.01617 | 106.52465 | 38238 ft | 366 kts | 281° |
| 2026-04-27 16:29 | 36.04706 | 106.37244 | 38254 ft | 364 kts | 281° |
| 2026-04-27 16:30 | 36.07153 | 106.25085 | 38253 ft | 364 kts | 282° |
| 2026-04-27 16:31 | 36.10193 | 106.10955 | 38255 ft | 365 kts | 283° |
| 2026-04-27 16:32 | 36.12471 | 106.00917 | 38251 ft | 365 kts | 283° |
| 2026-04-27 16:33 | 36.14273 | 105.92814 | 38258 ft | 365 kts | 283° |
| 2026-04-27 16:33 | 36.15613 | 105.86760 | 38266 ft | 365 kts | 283° |
| 2026-04-27 16:34 | 36.16944 | 105.80699 | 38275 ft | 365 kts | 283° |
| 2026-04-27 16:34 | 36.18276 | 105.74634 | 38265 ft | 365 kts | 283° |
| 2026-04-27 16:35 | 36.19611 | 105.68571 | 38271 ft | 365 kts | 283° |
| 2026-04-27 16:36 | 36.21608 | 105.59472 | 38281 ft | 365 kts | 283° |
| 2026-04-27 16:36 | 36.22917 | 105.53449 | 38285 ft | 365 kts | 283° |
| 2026-04-27 16:37 | 36.24242 | 105.47385 | 38282 ft | 365 kts | 283° |
| 2026-04-27 16:37 | 36.25562 | 105.41319 | 38281 ft | 365 kts | 283° |
| 2026-04-27 16:38 | 36.26874 | 105.35245 | 38280 ft | 365 kts | 283° |
| 2026-04-27 16:38 | 36.28181 | 105.29163 | 38282 ft | 365 kts | 283° |
| 2026-04-27 16:39 | 36.29491 | 105.23078 | 38285 ft | 365 kts | 283° |
| 2026-04-27 16:39 | 36.30794 | 105.16994 | 38286 ft | 365 kts | 283° |
| 2026-04-27 16:40 | 36.32101 | 105.10897 | 38284 ft | 366 kts | 283° |
| 2026-04-27 16:40 | 36.33406 | 105.04797 | 38291 ft | 366 kts | 283° |
| 2026-04-27 16:41 | 36.34708 | 104.98699 | 38284 ft | 366 kts | 283° |
| 2026-04-27 16:41 | 36.36003 | 104.92593 | 38313 ft | 366 kts | 279° |
| 2026-04-27 16:42 | 36.37294 | 104.86471 | 38294 ft | 367 kts | 280° |
| 2026-04-27 16:42 | 36.38579 | 104.80371 | 38283 ft | 368 kts | 280° |
| 2026-04-27 16:43 | 36.39878 | 104.74218 | 38280 ft | 369 kts | 280° |
| 2026-04-27 16:43 | 36.41177 | 104.68048 | 38282 ft | 370 kts | 280° |
| 2026-04-27 16:44 | 36.42473 | 104.61860 | 38293 ft | 371 kts | 280° |
| 2026-04-27 16:44 | 36.43769 | 104.55665 | 38299 ft | 370 kts | 280° |
| 2026-04-27 16:45 | 36.45056 | 104.49470 | 38297 ft | 370 kts | 280° |
| 2026-04-27 16:45 | 36.46343 | 104.43271 | 38307 ft | 371 kts | 280° |
| 2026-04-27 16:46 | 36.47631 | 104.37070 | 38306 ft | 371 kts | 280° |
| 2026-04-27 16:46 | 36.49548 | 104.31064 | 38311 ft | 380 kts | 291° |
| 2026-04-27 16:47 | 36.52036 | 104.25265 | 38314 ft | 380 kts | 291° |
| 2026-04-27 16:47 | 36.54517 | 104.19458 | 38321 ft | 380 kts | 291° |
| 2026-04-27 16:48 | 36.56994 | 104.13643 | 38327 ft | 381 kts | 291° |
| 2026-04-27 16:48 | 36.59473 | 104.07821 | 38334 ft | 381 kts | 291° |
| 2026-04-27 16:49 | 36.63196 | 103.99087 | 38345 ft | 381 kts | 291° |
| 2026-04-27 16:49 | 36.65726 | 103.93285 | 38351 ft | 382 kts | 291° |
| 2026-04-27 16:50 | 36.68265 | 103.87477 | 38363 ft | 382 kts | 291° |
| 2026-04-27 16:50 | 36.70803 | 103.81661 | 38364 ft | 382 kts | 291° |
| 2026-04-27 16:51 | 36.73327 | 103.75847 | 38365 ft | 381 kts | 291° |
| 2026-04-27 16:51 | 36.75825 | 103.70059 | 38371 ft | 381 kts | 291° |
| 2026-04-27 16:52 | 36.78336 | 103.64233 | 38372 ft | 381 kts | 291° |
| 2026-04-27 16:52 | 36.80845 | 103.58401 | 38380 ft | 382 kts | 291° |
| 2026-04-27 16:53 | 36.83351 | 103.52566 | 38389 ft | 382 kts | 291° |
| 2026-04-27 16:53 | 36.85867 | 103.46726 | 38409 ft | 381 kts | 291° |
| 2026-04-27 16:54 | 36.88370 | 103.40891 | 38412 ft | 381 kts | 291° |
| 2026-04-27 16:54 | 36.90861 | 103.35061 | 38423 ft | 380 kts | 291° |
| 2026-04-27 16:55 | 36.92419 | 103.28937 | 38426 ft | 366 kts | 271° |
| 2026-04-27 16:55 | 36.91833 | 103.22710 | 38426 ft | 363 kts | 252° |
| 2026-04-27 16:56 | 36.89956 | 103.16841 | 38416 ft | 364 kts | 250° |
| 2026-04-27 16:56 | 36.88061 | 103.10986 | 38419 ft | 364 kts | 250° |
| 2026-04-27 16:57 | 36.86162 | 103.05135 | 38421 ft | 363 kts | 250° |
| 2026-04-27 16:57 | 36.84260 | 102.99292 | 38415 ft | 363 kts | 249° |
| 2026-04-27 16:58 | 36.82354 | 102.93453 | 38416 ft | 363 kts | 249° |
| 2026-04-27 16:58 | 36.80463 | 102.87652 | 38412 ft | 363 kts | 250° |
| 2026-04-27 16:59 | 36.78579 | 102.81802 | 38408 ft | 364 kts | 250° |
| 2026-04-27 16:59 | 36.76690 | 102.75945 | 38408 ft | 364 kts | 250° |
| 2026-04-27 17:00 | 36.73840 | 102.67167 | 38397 ft | 364 kts | 250° |
| 2026-04-27 17:01 | 36.71940 | 102.61315 | 38384 ft | 364 kts | 250° |
| 2026-04-27 17:01 | 36.70042 | 102.55482 | 38370 ft | 364 kts | 249° |
| 2026-04-27 17:02 | 36.68133 | 102.49634 | 38352 ft | 365 kts | 249° |
| 2026-04-27 17:02 | 36.66222 | 102.43780 | 38341 ft | 365 kts | 249° |
| 2026-04-27 17:03 | 36.64300 | 102.37921 | 38328 ft | 366 kts | 249° |
| 2026-04-27 17:03 | 36.62371 | 102.32054 | 38318 ft | 367 kts | 249° |
| 2026-04-27 17:04 | 36.60443 | 102.26178 | 38316 ft | 367 kts | 249° |
| 2026-04-27 17:04 | 36.58505 | 102.20300 | 38297 ft | 368 kts | 249° |
| 2026-04-27 17:05 | 36.56570 | 102.14453 | 38322 ft | 368 kts | 249° |
| 2026-04-27 17:05 | 36.54623 | 102.08567 | 38311 ft | 368 kts | 249° |
| 2026-04-27 17:06 | 36.53188 | 102.02491 | 38304 ft | 368 kts | 263° |
| 2026-04-27 17:06 | 36.53454 | 101.96104 | 38298 ft | 372 kts | 273° |
| 2026-04-27 17:07 | 36.54029 | 101.89726 | 38296 ft | 371 kts | 273° |
| 2026-04-27 17:07 | 36.54589 | 101.83340 | 38288 ft | 371 kts | 273° |
| 2026-04-27 17:08 | 36.55137 | 101.76950 | 38280 ft | 371 kts | 272° |
| 2026-04-27 17:08 | 36.55686 | 101.70551 | 38284 ft | 372 kts | 272° |
| 2026-04-27 17:09 | 36.56236 | 101.64153 | 38285 ft | 372 kts | 272° |
| 2026-04-27 17:09 | 36.56781 | 101.57754 | 38281 ft | 372 kts | 272° |
| 2026-04-27 17:10 | 36.57320 | 101.51341 | 38285 ft | 373 kts | 272° |
| 2026-04-27 17:10 | 36.57861 | 101.44967 | 38283 ft | 373 kts | 272° |
| 2026-04-27 17:11 | 36.58399 | 101.38539 | 38274 ft | 374 kts | 272° |
| 2026-04-27 17:11 | 36.59201 | 101.28895 | 38223 ft | 370 kts | 276° |
| 2026-04-27 17:12 | 36.59981 | 101.19375 | 38275 ft | 368 kts | 276° |
| 2026-04-27 17:13 | 36.60497 | 101.13060 | 38264 ft | 367 kts | 276° |
| 2026-04-27 17:13 | 36.61010 | 101.06732 | 38250 ft | 367 kts | 275° |
| 2026-04-27 17:14 | 36.61513 | 101.00427 | 38237 ft | 366 kts | 275° |
| 2026-04-27 17:14 | 36.62047 | 100.94109 | 38238 ft | 367 kts | 276° |
| 2026-04-27 17:15 | 36.62663 | 100.87811 | 38232 ft | 367 kts | 276° |
| 2026-04-27 17:15 | 36.63283 | 100.81512 | 38225 ft | 367 kts | 276° |
| 2026-04-27 17:16 | 36.63882 | 100.75205 | 38219 ft | 367 kts | 276° |
| 2026-04-27 17:16 | 36.64473 | 100.68898 | 38219 ft | 367 kts | 276° |
| 2026-04-27 17:17 | 36.65065 | 100.62585 | 38215 ft | 367 kts | 275° |
| 2026-04-27 17:17 | 36.65654 | 100.56267 | 38215 ft | 367 kts | 275° |
| 2026-04-27 17:18 | 36.66522 | 100.46775 | 38213 ft | 368 kts | 275° |
| 2026-04-27 17:18 | 36.67098 | 100.40485 | 38217 ft | 368 kts | 275° |
| 2026-04-27 17:19 | 36.67672 | 100.34149 | 38219 ft | 368 kts | 275° |
| 2026-04-27 17:19 | 36.68240 | 100.27812 | 38225 ft | 368 kts | 275° |
| 2026-04-27 17:20 | 36.68810 | 100.21473 | 38223 ft | 368 kts | 275° |
| 2026-04-27 17:20 | 36.69380 | 100.15127 | 38225 ft | 368 kts | 275° |
| 2026-04-27 17:21 | 36.69945 | 100.08782 | 38225 ft | 369 kts | 275° |
| 2026-04-27 17:21 | 36.70505 | 100.02428 | 38225 ft | 369 kts | 274° |
| 2026-04-27 17:22 | 36.70968 | 99.97144 | 38228 ft | 369 kts | 274° |
| 2026-04-27 17:22 | 36.71526 | 99.90783 | 38233 ft | 369 kts | 274° |
| 2026-04-27 17:23 | 36.72078 | 99.84419 | 38233 ft | 369 kts | 274° |
| 2026-04-27 17:23 | 36.72628 | 99.78051 | 38236 ft | 370 kts | 274° |
| 2026-04-27 17:24 | 36.73172 | 99.71678 | 38233 ft | 370 kts | 274° |
| 2026-04-27 17:24 | 36.73714 | 99.65307 | 38234 ft | 370 kts | 274° |
| 2026-04-27 17:25 | 36.74251 | 99.58924 | 38226 ft | 370 kts | 274° |
| 2026-04-27 17:25 | 36.74787 | 99.52541 | 38219 ft | 370 kts | 274° |
| 2026-04-27 17:26 | 36.75319 | 99.46162 | 38208 ft | 370 kts | 274° |
| 2026-04-27 17:26 | 36.75852 | 99.39784 | 38200 ft | 370 kts | 273° |
| 2026-04-27 17:27 | 36.76370 | 99.33446 | 38201 ft | 370 kts | 273° |
| 2026-04-27 17:27 | 36.76893 | 99.27056 | 38188 ft | 370 kts | 273° |
| 2026-04-27 17:28 | 36.77413 | 99.20660 | 38181 ft | 371 kts | 273° |
| 2026-04-27 17:29 | 36.78545 | 99.11105 | 38172 ft | 377 kts | 285° |
| 2026-04-27 17:29 | 36.80910 | 99.05194 | 38179 ft | 383 kts | 292° |
| 2026-04-27 17:30 | 36.83439 | 98.99348 | 38180 ft | 383 kts | 292° |
| 2026-04-27 17:30 | 36.87226 | 98.90544 | 38182 ft | 384 kts | 292° |
| 2026-04-27 17:31 | 36.89748 | 98.84674 | 38178 ft | 384 kts | 291° |
| 2026-04-27 17:31 | 36.92264 | 98.78790 | 38194 ft | 384 kts | 291° |
| 2026-04-27 17:32 | 36.96030 | 98.69996 | 38185 ft | 384 kts | 291° |
| 2026-04-27 17:33 | 36.98557 | 98.64096 | 38180 ft | 385 kts | 291° |
| 2026-04-27 17:33 | 37.01079 | 98.58182 | 38175 ft | 385 kts | 291° |
| 2026-04-27 17:34 | 37.03599 | 98.52262 | 38169 ft | 386 kts | 291° |
| 2026-04-27 17:34 | 37.06112 | 98.46328 | 38172 ft | 386 kts | 291° |
| 2026-04-27 17:35 | 37.08634 | 98.40382 | 38160 ft | 387 kts | 291° |
| 2026-04-27 17:35 | 37.11158 | 98.34428 | 38162 ft | 387 kts | 292° |
| 2026-04-27 17:36 | 37.13681 | 98.28456 | 38162 ft | 388 kts | 292° |
| 2026-04-27 17:36 | 37.16207 | 98.22468 | 38155 ft | 389 kts | 292° |
| 2026-04-27 17:37 | 37.18736 | 98.16455 | 38148 ft | 390 kts | 292° |
| 2026-04-27 17:37 | 37.21271 | 98.10423 | 38146 ft | 391 kts | 292° |
| 2026-04-27 17:38 | 37.23811 | 98.04375 | 38147 ft | 392 kts | 292° |
| 2026-04-27 17:38 | 37.26339 | 97.98340 | 38155 ft | 393 kts | 292° |
| 2026-04-27 17:39 | 37.28879 | 97.92242 | 38151 ft | 394 kts | 292° |
| 2026-04-27 17:39 | 37.31422 | 97.86128 | 38157 ft | 395 kts | 293° |
| 2026-04-27 17:40 | 37.33973 | 97.80003 | 38159 ft | 396 kts | 293° |
| 2026-04-27 17:40 | 37.35659 | 97.73543 | 38166 ft | 388 kts | 272° |
| 2026-04-27 17:40 | 37.35579 | 97.70173 | 38163 ft | 386 kts | 261° |
| 2026-04-27 17:41 | 37.34889 | 97.66919 | 38153 ft | 387 kts | 249° |
| 2026-04-27 17:41 | 37.33624 | 97.63919 | 38145 ft | 391 kts | 237° |
| 2026-04-27 17:41 | 37.32007 | 97.61162 | 38141 ft | 392 kts | 236° |
| 2026-04-27 17:42 | 37.28719 | 97.55618 | 38159 ft | 401 kts | 236° |
| 2026-04-27 17:42 | 37.25371 | 97.49975 | 38152 ft | 404 kts | 236° |
| 2026-04-27 17:43 | 37.22003 | 97.44314 | 38146 ft | 405 kts | 236° |
| 2026-04-27 17:43 | 37.18624 | 97.38648 | 38141 ft | 405 kts | 235° |
| 2026-04-27 17:44 | 37.15244 | 97.32986 | 38134 ft | 406 kts | 236° |
| 2026-04-27 17:44 | 37.12465 | 97.26904 | 38125 ft | 402 kts | 251° |
| 2026-04-27 17:45 | 37.10613 | 97.20279 | 38116 ft | 403 kts | 251° |
| 2026-04-27 17:45 | 37.08758 | 97.13658 | 38112 ft | 403 kts | 251° |
| 2026-04-27 17:46 | 37.06889 | 97.07024 | 38107 ft | 404 kts | 251° |
| 2026-04-27 17:46 | 37.05006 | 97.00389 | 38107 ft | 405 kts | 251° |
| 2026-04-27 17:47 | 37.03128 | 96.93777 | 38107 ft | 406 kts | 251° |
| 2026-04-27 17:47 | 37.01237 | 96.87117 | 38111 ft | 407 kts | 251° |
| 2026-04-27 17:48 | 36.99340 | 96.80447 | 38110 ft | 408 kts | 251° |
| 2026-04-27 17:48 | 36.97435 | 96.73763 | 38113 ft | 408 kts | 251° |
| 2026-04-27 17:49 | 36.95526 | 96.67068 | 38119 ft | 409 kts | 251° |
| 2026-04-27 17:49 | 36.93604 | 96.60361 | 38107 ft | 410 kts | 251° |
| 2026-04-27 17:49 | 36.92640 | 96.57007 | 37675 ft | 411 kts | 252° |
| 2026-04-27 17:50 | 36.91675 | 96.53640 | 37081 ft | 413 kts | 252° |
| 2026-04-27 17:50 | 36.89714 | 96.46833 | 35767 ft | 419 kts | 252° |
| 2026-04-27 17:50 | 36.88722 | 96.43396 | 35072 ft | 423 kts | 252° |
| 2026-04-27 17:51 | 36.87721 | 96.39926 | 34356 ft | 426 kts | 253° |
| 2026-04-27 17:51 | 36.86712 | 96.36432 | 33554 ft | 430 kts | 253° |
| 2026-04-27 17:51 | 36.85692 | 96.32907 | 32732 ft | 433 kts | 253° |
| 2026-04-27 17:51 | 36.84660 | 96.29363 | 32022 ft | 434 kts | 253° |
| 2026-04-27 17:52 | 36.83631 | 96.25839 | 31469 ft | 430 kts | 253° |
| 2026-04-27 17:52 | 36.82612 | 96.22348 | 30928 ft | 427 kts | 253° |
| 2026-04-27 17:52 | 36.81599 | 96.18875 | 30380 ft | 424 kts | 253° |
| 2026-04-27 17:52 | 36.80931 | 96.16591 | 30042 ft | 423 kts | 253° |
| 2026-04-27 17:53 | 36.79591 | 96.11996 | 29433 ft | 420 kts | 253° |
| 2026-04-27 17:53 | 36.78592 | 96.08582 | 29062 ft | 418 kts | 253° |
| 2026-04-27 17:53 | 36.77594 | 96.05180 | 28732 ft | 416 kts | 253° |
| 2026-04-27 17:53 | 36.76618 | 96.01793 | 28397 ft | 414 kts | 254° |
| 2026-04-27 17:54 | 36.75664 | 95.98414 | 28076 ft | 412 kts | 254° |
| 2026-04-27 17:54 | 36.74724 | 95.95045 | 27759 ft | 411 kts | 254° |
| 2026-04-27 17:54 | 36.73791 | 95.91695 | 27344 ft | 408 kts | 254° |
| 2026-04-27 17:54 | 36.72859 | 95.88362 | 26851 ft | 405 kts | 254° |
| 2026-04-27 17:55 | 36.71930 | 95.85058 | 26367 ft | 403 kts | 254° |
| 2026-04-27 17:55 | 36.71002 | 95.81773 | 25888 ft | 401 kts | 254° |
| 2026-04-27 17:55 | 36.70079 | 95.78512 | 25395 ft | 397 kts | 253° |
| 2026-04-27 17:55 | 36.69160 | 95.75278 | 24813 ft | 395 kts | 253° |
| 2026-04-27 17:56 | 36.68245 | 95.72067 | 24253 ft | 392 kts | 253° |
| 2026-04-27 17:56 | 36.67333 | 95.68874 | 23699 ft | 390 kts | 253° |
| 2026-04-27 17:56 | 36.66425 | 95.65706 | 23080 ft | 387 kts | 253° |
| 2026-04-27 17:56 | 36.65537 | 95.62608 | 22484 ft | 383 kts | 253° |
| 2026-04-27 17:57 | 36.64646 | 95.59494 | 21875 ft | 379 kts | 253° |
| 2026-04-27 17:57 | 36.63763 | 95.56416 | 21292 ft | 376 kts | 253° |
| 2026-04-27 17:57 | 36.62890 | 95.53371 | 20700 ft | 371 kts | 253° |
| 2026-04-27 17:57 | 36.62026 | 95.50362 | 20115 ft | 367 kts | 253° |
| 2026-04-27 17:58 | 36.61170 | 95.47386 | 19535 ft | 363 kts | 253° |
| 2026-04-27 17:58 | 36.60326 | 95.44440 | 18947 ft | 359 kts | 253° |
| 2026-04-27 17:58 | 36.59492 | 95.41525 | 18358 ft | 355 kts | 253° |
| 2026-04-27 17:58 | 36.58666 | 95.38642 | 17696 ft | 352 kts | 253° |
| 2026-04-27 17:59 | 36.57846 | 95.35791 | 17034 ft | 348 kts | 253° |
| 2026-04-27 17:59 | 36.57034 | 95.32973 | 16358 ft | 344 kts | 252° |
| 2026-04-27 17:59 | 36.56231 | 95.30190 | 15703 ft | 340 kts | 252° |
| 2026-04-27 17:59 | 36.55424 | 95.27442 | 15042 ft | 337 kts | 250° |
| 2026-04-27 18:00 | 36.54308 | 95.24881 | 14413 ft | 336 kts | 237° |
| 2026-04-27 18:00 | 36.52770 | 95.22709 | 13886 ft | 333 kts | 223° |
| 2026-04-27 18:00 | 36.50928 | 95.21054 | 13767 ft | 323 kts | 212° |
| 2026-04-27 18:00 | 36.48956 | 95.19779 | 13634 ft | 316 kts | 210° |
| 2026-04-27 18:01 | 36.47021 | 95.18556 | 13509 ft | 309 kts | 209° |
| 2026-04-27 18:01 | 36.45129 | 95.17359 | 13385 ft | 302 kts | 209° |
| 2026-04-27 18:01 | 36.43320 | 95.16094 | 13252 ft | 294 kts | 218° |
| 2026-04-27 18:01 | 36.41858 | 95.14370 | 13119 ft | 286 kts | 234° |
| 2026-04-27 18:02 | 36.40851 | 95.12291 | 12996 ft | 278 kts | 249° |
| 2026-04-27 18:02 | 36.40327 | 95.10025 | 12888 ft | 270 kts | 263° |
| 2026-04-27 18:02 | 36.40234 | 95.07774 | 12894 ft | 259 kts | 270° |
| 2026-04-27 18:02 | 36.40220 | 95.05594 | 12872 ft | 248 kts | 270° |
| 2026-04-27 18:03 | 36.40206 | 95.03463 | 12633 ft | 247 kts | 270° |
| 2026-04-27 18:03 | 36.40191 | 95.01316 | 12310 ft | 249 kts | 270° |
| 2026-04-27 18:03 | 36.40175 | 94.99193 | 11993 ft | 241 kts | 270° |
| 2026-04-27 18:03 | 36.40159 | 94.97156 | 11687 ft | 231 kts | 270° |
| 2026-04-27 18:04 | 36.40144 | 94.95218 | 11410 ft | 218 kts | 270° |
| 2026-04-27 18:04 | 36.40129 | 94.93393 | 11126 ft | 205 kts | 270° |
| 2026-04-27 18:04 | 36.40115 | 94.91692 | 10896 ft | 188 kts | 270° |
| 2026-04-27 18:04 | 36.40102 | 94.90138 | 10645 ft | 171 kts | 270° |
| 2026-04-27 18:05 | 36.40090 | 94.88717 | 10448 ft | 159 kts | 270° |
| 2026-04-27 18:05 | 36.40079 | 94.87388 | 10265 ft | 150 kts | 270° |
| 2026-04-27 18:05 | 36.40069 | 94.86115 | 10097 ft | 146 kts | 270° |
| 2026-04-27 18:05 | 36.40061 | 94.84859 | 9903 ft | 145 kts | 269° |
| 2026-04-27 18:06 | 36.40048 | 94.83610 | 9707 ft | 145 kts | 269° |
| 2026-04-27 18:06 | 36.40039 | 94.82377 | 9547 ft | 145 kts | 269° |
| 2026-04-27 18:06 | 36.40029 | 94.81126 | 9393 ft | 145 kts | 268° |
| 2026-04-27 18:06 | 36.40015 | 94.79993 | 9360 ft | 114 kts | 269° |
| 2026-04-27 18:07 | 36.40009 | 94.79219 | 9361 ft | 65 kts | 269° |
| 2026-04-27 18:07 | 36.40005 | 94.78870 | 9357 ft | 16 kts | 270° |
| 2026-04-27 18:07 | 36.40005 | 94.78788 | 9360 ft | 14 kts | 270° |
| 2026-04-27 18:07 | 36.40006 | 94.78628 | 9359 ft | 24 kts | 271° |
| 2026-04-27 18:08 | 36.40007 | 94.78456 | 9354 ft | 14 kts | 270° |
| 2026-04-27 18:08 | 36.40012 | 94.78393 | 9355 ft | 8 kts | 217° |
| 2026-04-27 18:08 | 36.40002 | 94.78500 | 9356 ft | 21 kts | 90° |
| 2026-04-27 18:08 | 36.40003 | 94.78679 | 9360 ft | 3 kts | 90° |
| 2026-04-27 18:09 | 36.40005 | 94.78770 | 9360 ft | 15 kts | 88° |
| 2026-04-27 18:09 | 36.40014 | 94.78854 | 9356 ft | 9 kts | 53° |
| 2026-04-27 18:09 | 36.40088 | 94.78857 | 9358 ft | 19 kts | 359° |
| 2026-04-27 18:09 | 36.40196 | 94.78856 | 9357 ft | 14 kts | 359° |
| 2026-04-27 18:10 | 36.40266 | 94.78866 | 9358 ft | 6 kts | 41° |
| 2026-04-27 18:10 | 36.40272 | 94.78949 | 9359 ft | 0 kts | 93° |
| 2026-04-27 18:10 | 36.40281 | 94.78958 | 9356 ft | 3 kts | 2° |
| 2026-04-27 18:10 | 36.40293 | 94.78952 | 9358 ft | 2 kts | 7° |
| 2026-04-27 18:11 | 36.40308 | 94.78951 | 9358 ft | 0 kts | 1° |